createdAt,value
2023-04-27T00:02:13.850Z,100812.38
2023-04-27T00:04:41.940Z,100805.53
2023-04-27T00:07:09.926Z,100807.00
2023-04-27T00:09:37.783Z,100802.63
2023-04-27T00:12:06.437Z,100803.78
2023-04-27T00:14:34.307Z,100801.34
2023-04-27T00:17:02.301Z,100808.78
2023-04-27T00:19:30.737Z,100789.06
2023-04-27T00:22:00.526Z,100800.28
2023-04-27T00:24:28.537Z,100799.78
2023-04-27T00:26:56.719Z,100800.28
2023-04-27T00:29:24.762Z,100801.38
2023-04-27T00:31:52.652Z,100793.94
2023-04-27T00:34:23.395Z,100791.19
2023-04-27T00:36:51.376Z,100803.00
2023-04-27T00:39:21.442Z,100801.84
2023-04-27T00:41:49.314Z,100814.22
2023-04-27T00:44:27.842Z,100812.63
2023-04-27T00:46:58.611Z,100803.06
2023-04-27T00:49:27.101Z,100805.88
2023-04-27T00:51:55.991Z,100795.22
2023-04-27T00:54:24.212Z,100809.72
2023-04-27T00:56:53.269Z,100798.50
2023-04-27T00:59:22.041Z,100799.38
2023-04-27T01:01:50.494Z,100811.56
2023-04-27T01:04:20.461Z,100799.56
2023-04-27T01:06:48.492Z,100789.44
2023-04-27T01:09:19.622Z,100787.00
2023-04-27T01:11:50.892Z,100793.09
2023-04-27T01:14:18.822Z,100790.66
2023-04-27T01:16:46.733Z,100783.81
2023-04-27T01:19:15.072Z,100780.84
2023-04-27T01:21:44.232Z,100784.97
2023-04-27T01:24:12.374Z,100790.69
2023-04-27T01:26:40.211Z,100792.06
2023-04-27T01:29:08.163Z,100776.78
2023-04-27T01:31:36.076Z,100786.16
2023-04-27T01:34:04.033Z,100781.78
2023-04-27T01:36:32.480Z,100787.34
2023-04-27T01:39:00.293Z,100798.31
2023-04-27T01:41:28.170Z,100793.97
2023-04-27T01:43:56.154Z,100790.38
2023-04-27T01:46:24.709Z,100794.78
2023-04-27T01:48:52.650Z,100808.19
2023-04-27T01:51:20.796Z,100804.06
2023-04-27T01:53:48.715Z,100805.44
2023-04-27T01:56:17.609Z,100811.44
2023-04-27T01:58:46.392Z,100808.75
2023-04-27T02:01:14.797Z,100801.34
2023-04-27T02:03:42.782Z,100805.47
2023-04-27T02:06:10.863Z,100810.41
2023-04-27T02:08:40.365Z,100810.69
2023-04-27T02:11:09.693Z,100823.00
2023-04-27T02:13:38.047Z,100821.91
2023-04-27T02:16:06.912Z,100815.31
2023-04-27T02:18:35.249Z,100806.56
2023-04-27T02:21:09.942Z,100819.16
2023-04-27T02:23:38.115Z,100829.03
2023-04-27T02:26:06.471Z,100835.59
2023-04-27T02:28:34.382Z,100834.53
2023-04-27T02:31:03.091Z,100830.69
2023-04-27T02:33:31.105Z,100835.34
2023-04-27T02:35:58.969Z,100843.28
2023-04-27T02:38:30.377Z,100840.28
2023-04-27T02:40:58.244Z,100847.16
2023-04-27T02:43:27.203Z,100843.84
2023-04-27T02:45:55.017Z,100844.69
2023-04-27T02:48:22.845Z,100844.66
2023-04-27T02:50:50.680Z,100857.28
2023-04-27T02:53:18.609Z,100860.28
2023-04-27T02:55:51.094Z,100846.03
2023-04-27T02:58:18.938Z,100852.59
2023-04-27T03:00:48.643Z,100854.81
2023-04-27T03:03:17.055Z,100856.97
2023-04-27T03:05:46.572Z,100857.25
2023-04-27T03:08:14.498Z,100854.22
2023-04-27T03:10:42.414Z,100865.72
2023-04-27T03:13:11.169Z,100861.34
2023-04-27T03:15:39.056Z,100864.91
2023-04-27T03:18:07.044Z,100870.06
2023-04-27T03:20:35.068Z,100865.41
2023-04-27T03:23:02.992Z,100864.88
2023-04-27T03:25:30.918Z,100860.78
2023-04-27T03:27:58.837Z,100879.63
2023-04-27T03:30:26.858Z,100864.59
2023-04-27T03:32:54.825Z,100877.22
2023-04-27T03:35:22.760Z,100877.78
2023-04-27T03:37:50.633Z,100870.91
2023-04-27T03:40:18.584Z,100871.16
2023-04-27T03:42:46.627Z,100873.91
2023-04-27T03:45:16.733Z,100862.97
2023-04-27T03:47:44.784Z,100869.53
2023-04-27T03:50:15.287Z,100862.41
2023-04-27T03:52:43.152Z,100868.41
2023-04-27T03:55:11.842Z,100867.59
2023-04-27T03:57:42.556Z,100868.41
2023-04-27T04:00:12.521Z,100869.53
2023-04-27T04:02:44.246Z,100870.63
2023-04-27T04:05:14.904Z,100870.91
2023-04-27T04:07:43.777Z,100876.91
2023-04-27T04:10:13.002Z,100867.84
2023-04-27T04:12:41.015Z,100873.31
2023-04-27T04:15:09.490Z,100873.00
2023-04-27T04:17:38.823Z,100877.41
2023-04-27T04:20:10.939Z,100876.63
2023-04-27T04:22:39.516Z,100881.00
2023-04-27T04:25:08.538Z,100888.34
2023-04-27T04:27:36.496Z,100895.75
2023-04-27T04:30:07.498Z,100905.44
2023-04-27T04:32:40.979Z,100897.50
2023-04-27T04:35:09.983Z,100911.47
2023-04-27T04:37:39.288Z,100906.00
2023-04-27T04:40:11.469Z,100907.06
2023-04-27T04:42:40.397Z,100910.06
2023-04-27T04:45:10.657Z,100912.81
2023-04-27T04:47:39.806Z,100906.75
2023-04-27T04:50:10.057Z,100919.38
2023-04-27T04:52:39.234Z,100928.91
2023-04-27T04:55:07.642Z,100916.06
2023-04-27T04:57:36.163Z,100935.25
2023-04-27T05:00:06.826Z,100932.13
2023-04-27T05:02:34.898Z,100936.69
2023-04-27T05:05:02.927Z,100934.53
2023-04-27T05:07:31.081Z,100940.47
2023-04-27T05:09:59.091Z,100951.34
2023-04-27T05:12:27.121Z,100952.81
2023-04-27T05:14:55.068Z,100965.66
2023-04-27T05:17:22.958Z,100960.25
2023-04-27T05:19:51.082Z,100956.94
2023-04-27T05:22:18.969Z,100974.75
2023-04-27T05:24:46.913Z,100963.16
2023-04-27T05:27:17.483Z,100971.31
2023-04-27T05:29:45.336Z,100967.97
2023-04-27T05:32:13.201Z,100958.63
2023-04-27T05:34:41.266Z,100969.47
2023-04-27T05:37:09.164Z,100968.63
2023-04-27T05:39:37.046Z,100972.03
2023-04-27T05:42:05.148Z,100975.19
2023-04-27T05:44:33.020Z,100970.41
2023-04-27T05:47:01.118Z,100979.84
2023-04-27T05:49:29.121Z,100976.53
2023-04-27T05:51:59.149Z,100979.47
2023-04-27T05:54:27.695Z,100988.63
2023-04-27T05:56:55.821Z,100979.34
2023-04-27T05:59:23.756Z,100985.03
2023-04-27T06:01:51.805Z,100982.44
2023-04-27T06:04:19.846Z,100983.06
2023-04-27T06:06:47.917Z,100989.56
2023-04-27T06:09:16.082Z,100991.84
2023-04-27T06:11:44.106Z,100988.06
2023-04-27T06:14:11.945Z,100999.75
2023-04-27T06:16:41.129Z,100997.69
2023-04-27T06:19:09.047Z,101000.06
2023-04-27T06:21:36.936Z,100998.59
2023-04-27T06:24:04.897Z,100997.84
2023-04-27T06:26:33.600Z,101004.03
2023-04-27T06:29:03.762Z,101009.69
2023-04-27T06:31:31.700Z,101009.25
2023-04-27T06:33:59.756Z,101019.44
2023-04-27T06:36:28.365Z,101021.31
2023-04-27T06:38:56.730Z,101009.59
2023-04-27T06:41:26.212Z,101020.13
2023-04-27T06:43:55.502Z,101029.63
2023-04-27T06:46:24.865Z,101021.28
2023-04-27T06:48:52.911Z,101023.22
2023-04-27T06:51:20.804Z,101031.59
2023-04-27T06:53:48.794Z,101030.06
2023-04-27T06:56:16.656Z,101033.09
2023-04-27T06:58:44.508Z,101031.25
2023-04-27T07:01:12.395Z,101035.75
2023-04-27T07:03:40.469Z,101033.38
2023-04-27T07:06:08.576Z,101033.00
2023-04-27T07:08:37.178Z,101030.03
2023-04-27T07:11:05.127Z,101030.22
2023-04-27T07:13:33.387Z,101027.09
2023-04-27T07:16:01.576Z,101020.03
2023-04-27T07:18:29.835Z,101030.94
2023-04-27T07:20:58.268Z,101033.16
2023-04-27T07:23:26.215Z,101034.09
2023-04-27T07:25:54.357Z,101031.28
2023-04-27T07:28:22.498Z,101036.84
2023-04-27T07:30:50.780Z,101031.00
2023-04-27T07:33:18.762Z,101035.09
2023-04-27T07:35:46.660Z,101034.09
2023-04-27T07:38:14.615Z,101038.75
2023-04-27T07:40:44.694Z,101042.53
2023-04-27T07:43:13.353Z,101044.34
2023-04-27T07:45:41.731Z,101040.88
2023-04-27T07:48:10.011Z,101043.41
2023-04-27T07:50:38.000Z,101040.50
2023-04-27T07:53:05.913Z,101044.28
2023-04-27T07:55:34.096Z,101043.38
2023-04-27T07:58:02.448Z,101040.56
2023-04-27T08:00:30.351Z,101035.41
2023-04-27T08:02:58.541Z,101044.19
2023-04-27T08:05:26.660Z,101048.78
2023-04-27T08:07:55.052Z,101053.34
2023-04-27T08:10:23.617Z,101051.81
2023-04-27T08:12:51.664Z,101072.06
2023-04-27T08:15:20.367Z,101063.50
2023-04-27T08:17:48.481Z,101061.47
2023-04-27T08:20:16.617Z,101054.94
2023-04-27T08:22:44.500Z,101063.38
2023-04-27T08:25:12.394Z,101049.84
2023-04-27T08:27:41.005Z,101056.69
2023-04-27T08:30:09.552Z,101069.22
2023-04-27T08:32:37.599Z,101077.13
2023-04-27T08:35:06.613Z,101072.75
2023-04-27T08:37:34.544Z,101079.91
2023-04-27T08:40:06.741Z,101073.56
2023-04-27T08:42:34.696Z,101085.81
2023-04-27T08:45:02.811Z,101079.13
2023-04-27T08:47:41.628Z,101076.81
2023-04-27T08:50:12.789Z,101084.53
2023-04-27T08:52:40.813Z,101083.44
2023-04-27T08:55:09.066Z,101082.25
2023-04-27T08:57:37.201Z,101079.19
2023-04-27T09:00:13.034Z,101095.00
2023-04-27T09:02:48.300Z,101093.84
2023-04-27T09:05:20.751Z,101077.25
2023-04-27T09:07:59.522Z,101090.78
2023-04-27T09:10:29.742Z,101085.75
2023-04-27T09:12:59.668Z,101083.09
2023-04-27T09:15:28.895Z,101083.47
2023-04-27T09:17:57.724Z,101063.41
2023-04-27T09:20:29.035Z,101082.03
2023-04-27T09:22:58.724Z,101068.16
2023-04-27T09:25:33.204Z,101066.50
2023-04-27T09:28:01.902Z,101069.28
2023-04-27T09:30:30.456Z,101066.03
2023-04-27T09:33:01.872Z,101072.22
2023-04-27T09:35:32.616Z,101066.88
2023-04-27T09:38:01.337Z,101065.41
2023-04-27T09:40:31.348Z,101065.59
2023-04-27T09:43:04.269Z,101056.44
2023-04-27T09:45:34.375Z,101062.16
2023-04-27T09:48:03.441Z,101057.75
2023-04-27T09:50:37.348Z,101051.38
2023-04-27T09:53:08.512Z,101054.81
2023-04-27T09:55:46.223Z,101060.38
2023-04-27T09:58:16.837Z,101055.78
2023-04-27T10:01:09.110Z,101053.66
2023-04-27T10:03:51.942Z,101044.84
2023-04-27T10:06:29.038Z,101049.41
2023-04-27T10:08:57.601Z,101039.31
2023-04-27T10:11:41.309Z,101042.53
2023-04-27T10:14:11.349Z,101044.38
2023-04-27T10:16:54.407Z,101044.41
2023-04-27T10:19:23.876Z,101047.13
2023-04-27T10:22:02.360Z,101040.72
2023-04-27T10:24:38.212Z,101032.78
2023-04-27T10:27:08.286Z,101044.84
2023-04-27T10:29:38.716Z,101045.53
2023-04-27T10:32:08.168Z,101052.41
2023-04-27T10:34:37.873Z,101034.38
2023-04-27T10:37:10.550Z,101033.53
2023-04-27T10:39:48.586Z,101045.34
2023-04-27T10:42:29.930Z,101035.38
2023-04-27T10:44:58.869Z,101033.88
2023-04-27T10:47:41.195Z,101028.31
2023-04-27T10:50:13.836Z,101027.34
2023-04-27T10:52:46.943Z,101033.97
2023-04-27T10:55:22.598Z,101031.44
2023-04-27T10:57:56.141Z,101022.19
2023-04-27T11:00:45.008Z,101024.13
2023-04-27T11:03:13.316Z,101028.25
2023-04-27T11:05:43.155Z,101022.41
2023-04-27T11:08:14.170Z,101025.00
2023-04-27T11:10:47.631Z,101019.44
2023-04-27T11:13:22.778Z,101013.06
2023-04-27T11:15:59.078Z,101019.91
2023-04-27T11:18:30.629Z,101009.41
2023-04-27T11:21:09.788Z,101012.75
2023-04-27T11:23:41.470Z,101017.41
2023-04-27T11:26:19.786Z,101023.84
2023-04-27T11:29:05.608Z,101027.06
2023-04-27T11:31:52.836Z,101013.56
2023-04-27T11:34:23.230Z,101011.97
2023-04-27T11:37:10.802Z,101015.16
2023-04-27T11:39:46.525Z,101005.41
2023-04-27T11:42:25.183Z,101012.66
2023-04-27T11:44:57.324Z,101006.19
2023-04-27T11:47:27.916Z,101014.31
2023-04-27T11:49:57.765Z,101014.63
2023-04-27T11:52:30.375Z,101008.53
2023-04-27T11:54:59.475Z,101010.72
2023-04-27T11:57:29.700Z,101004.97
2023-04-27T12:00:00.600Z,101022.66
2023-04-27T12:02:31.549Z,101010.03
2023-04-27T12:05:00.316Z,101009.09
2023-04-27T12:07:28.362Z,101006.47
2023-04-27T12:09:57.980Z,101009.19
2023-04-27T12:12:27.609Z,101004.44
2023-04-27T12:14:55.452Z,100994.34
2023-04-27T12:17:23.460Z,100997.00
2023-04-27T12:19:51.561Z,101000.97
2023-04-27T12:22:19.548Z,100995.75
2023-04-27T12:24:47.416Z,101008.28
2023-04-27T12:27:15.418Z,101011.81
2023-04-27T12:29:43.273Z,101002.22
2023-04-27T12:32:11.204Z,100999.47
2023-04-27T12:34:39.695Z,101002.41
2023-04-27T12:37:07.818Z,101011.00
2023-04-27T12:39:35.839Z,101012.94
2023-04-27T12:42:04.016Z,101007.38
2023-04-27T12:44:32.478Z,101010.03
2023-04-27T12:47:00.400Z,101009.22
2023-04-27T12:49:28.232Z,101002.59
2023-04-27T12:51:57.463Z,101009.19
2023-04-27T12:54:25.411Z,101003.16
2023-04-27T12:56:53.246Z,101004.00
2023-04-27T12:59:21.375Z,101001.78
2023-04-27T13:01:49.430Z,100993.91
2023-04-27T13:04:21.486Z,100992.97
2023-04-27T13:06:50.344Z,100993.06
2023-04-27T13:09:18.181Z,100992.09
2023-04-27T13:11:46.911Z,100984.81
2023-04-27T13:14:15.338Z,100991.88
2023-04-27T13:16:43.801Z,100985.84
2023-04-27T13:19:11.638Z,100981.63
2023-04-27T13:21:39.653Z,100980.81
2023-04-27T13:24:07.661Z,100972.06
2023-04-27T13:26:35.897Z,100965.56
2023-04-27T13:29:05.011Z,100974.09
2023-04-27T13:31:33.491Z,100974.97
2023-04-27T13:34:02.213Z,100965.78
2023-04-27T13:36:30.243Z,100970.38
2023-04-27T13:38:58.183Z,100961.03
2023-04-27T13:41:27.246Z,100981.19
2023-04-27T13:43:55.146Z,100963.44
2023-04-27T13:46:23.137Z,100960.72
2023-04-27T13:48:51.136Z,100969.25
2023-04-27T13:51:19.219Z,100963.84
2023-04-27T13:53:47.121Z,100961.31
2023-04-27T13:56:15.038Z,100962.97
2023-04-27T13:58:42.985Z,100955.31
2023-04-27T14:01:11.028Z,100966.03
2023-04-27T14:03:39.846Z,100953.25
2023-04-27T14:06:09.667Z,100964.88
2023-04-27T14:08:38.026Z,100957.56
2023-04-27T14:11:06.613Z,100942.94
2023-04-27T14:21:30.056Z,100945.84
2023-04-27T14:23:58.156Z,100940.22
2023-04-27T14:26:25.901Z,100934.72
2023-04-27T14:28:58.056Z,100938.66
2023-04-27T14:31:26.657Z,100947.69
2023-04-27T14:33:56.678Z,100946.69
2023-04-27T14:36:24.417Z,100934.75
2023-04-27T14:38:53.004Z,100931.16
2023-04-27T14:41:21.220Z,100933.19
2023-04-27T14:43:49.140Z,100940.72
2023-04-27T14:46:20.779Z,100928.53
2023-04-27T14:48:49.913Z,100938.28
2023-04-27T14:51:17.704Z,100932.19
2023-04-27T14:53:45.490Z,100922.09
2023-04-27T14:56:13.274Z,100920.22
2023-04-27T14:58:41.631Z,100923.53
2023-04-27T15:01:09.447Z,100919.81
2023-04-27T15:03:37.401Z,100927.13
2023-04-27T15:06:06.660Z,100925.91
2023-04-27T15:08:34.622Z,100922.47
2023-04-27T15:11:05.558Z,100923.78
2023-04-27T15:13:33.720Z,100926.03
2023-04-27T15:16:02.445Z,100919.28
2023-04-27T15:18:30.280Z,100917.94
2023-04-27T15:20:59.769Z,100919.25
2023-04-27T15:23:27.840Z,100918.97
2023-04-27T15:25:57.419Z,100920.09
2023-04-27T15:28:26.040Z,100920.69
2023-04-27T15:30:53.852Z,100926.31
2023-04-27T15:33:21.656Z,100919.09
2023-04-27T15:35:50.537Z,100919.25
2023-04-27T15:38:19.066Z,100927.38
2023-04-27T15:40:47.000Z,100929.09
2023-04-27T15:43:15.211Z,100923.53
2023-04-27T15:45:44.183Z,100922.59
2023-04-27T15:48:12.398Z,100921.28
2023-04-27T15:50:40.624Z,100916.06
2023-04-27T15:53:08.382Z,100920.13
2023-04-27T15:55:36.305Z,100931.03
2023-04-27T15:58:04.081Z,100925.56
2023-04-27T16:00:31.830Z,100932.19
2023-04-27T16:02:59.907Z,100928.13
2023-04-27T16:05:27.763Z,100922.69
2023-04-27T16:07:55.487Z,100924.19
2023-04-27T16:10:23.331Z,100928.34
2023-04-27T16:12:51.064Z,100929.94
2023-04-27T16:15:18.926Z,100931.13
2023-04-27T16:17:46.848Z,100933.97
2023-04-27T16:20:14.656Z,100919.84
2023-04-27T16:22:42.464Z,100932.00
2023-04-27T16:25:11.304Z,100936.94
2023-04-27T16:27:39.529Z,100939.66
2023-04-27T16:30:07.982Z,100940.06
2023-04-27T16:32:36.300Z,100932.81
2023-04-27T16:35:04.900Z,100928.88
2023-04-27T16:37:33.057Z,100929.16
2023-04-27T16:40:06.921Z,100938.56
2023-04-27T16:42:36.809Z,100941.03
2023-04-27T16:45:07.154Z,100944.28
2023-04-27T16:47:36.844Z,100943.59
2023-04-27T16:50:04.869Z,100942.78
2023-04-27T16:52:32.547Z,100937.91
2023-04-27T16:55:00.360Z,100939.28
2023-04-27T16:57:28.309Z,100946.25
2023-04-27T16:59:56.443Z,100946.72
2023-04-27T17:02:25.581Z,100945.91
2023-04-27T17:04:54.927Z,100952.56
2023-04-27T17:07:22.797Z,100958.00
2023-04-27T17:09:50.727Z,100949.44
2023-04-27T17:12:18.516Z,100961.09
2023-04-27T17:14:46.528Z,100956.84
2023-04-27T17:17:14.304Z,100959.56
2023-04-27T17:19:42.167Z,100967.41
2023-04-27T17:22:13.394Z,100955.34
2023-04-27T17:24:41.366Z,100958.63
2023-04-27T17:27:09.239Z,100964.06
2023-04-27T17:29:37.532Z,100963.81
2023-04-27T17:32:05.665Z,100962.25
2023-04-27T17:34:33.531Z,100958.44
2023-04-27T17:37:02.073Z,100965.00
2023-04-27T17:39:29.778Z,100953.06
2023-04-27T17:41:57.596Z,100958.94
2023-04-27T17:44:25.371Z,100970.56
2023-04-27T17:46:53.194Z,100977.16
2023-04-27T17:49:21.159Z,100974.56
2023-04-27T17:51:49.421Z,100964.59
2023-04-27T17:54:17.165Z,100974.59
2023-04-27T17:56:44.897Z,100975.47
2023-04-27T17:59:12.890Z,100973.81
2023-04-27T18:01:40.838Z,100976.28
2023-04-27T18:04:08.779Z,100977.97
2023-04-27T18:06:36.756Z,100970.19
2023-04-27T18:09:04.516Z,100980.63
2023-04-27T18:11:32.795Z,100972.34
2023-04-27T18:14:01.962Z,100980.84
2023-04-27T18:16:29.696Z,100975.50
2023-04-27T18:18:57.354Z,100974.03
2023-04-27T18:21:26.813Z,100977.94
2023-04-27T18:23:54.528Z,100974.84
2023-04-27T18:26:22.243Z,100984.63
2023-04-27T18:28:50.045Z,100992.50
2023-04-27T18:31:19.005Z,100988.09
2023-04-27T18:33:47.078Z,100994.13
2023-04-27T18:36:14.795Z,100996.06
2023-04-27T18:38:42.772Z,100995.56
2023-04-27T18:41:10.897Z,100985.94
2023-04-27T18:43:38.659Z,101011.56
2023-04-27T18:46:06.486Z,101000.13
2023-04-27T18:48:34.332Z,101004.84
2023-04-27T18:51:02.330Z,101015.13
2023-04-27T18:53:30.118Z,101024.28
2023-04-27T18:55:57.949Z,101025.56
2023-04-27T18:58:25.732Z,101044.31
2023-04-27T19:01:06.364Z,101051.69
2023-04-27T19:03:40.198Z,101047.91
2023-04-27T19:06:30.182Z,101057.34
2023-04-27T19:09:05.733Z,101058.94
2023-04-27T19:11:33.553Z,101072.94
2023-04-27T19:14:01.386Z,101072.91
2023-04-27T19:16:29.221Z,101073.44
2023-04-27T19:18:57.659Z,101075.97
2023-04-27T19:21:25.609Z,101078.47
2023-04-27T19:23:53.443Z,101072.22
2023-04-27T19:26:21.477Z,101074.66
2023-04-27T19:28:49.196Z,101087.72
2023-04-27T19:31:17.435Z,101079.66
2023-04-27T19:33:47.420Z,101097.66
2023-04-27T19:36:23.208Z,101096.81
2023-04-27T19:38:51.633Z,101094.28
2023-04-27T19:41:19.793Z,101097.47
2023-04-27T19:43:49.491Z,101109.53
2023-04-27T19:46:17.417Z,101113.91
2023-04-27T19:48:46.304Z,101112.47
2023-04-27T19:51:14.054Z,101109.69
2023-04-27T19:53:41.964Z,101118.91
2023-04-27T19:56:09.946Z,101110.72
2023-04-27T19:58:37.791Z,101117.69
2023-04-27T20:01:06.467Z,101124.44
2023-04-27T20:03:35.834Z,101121.56
2023-04-27T20:06:04.506Z,101121.75
2023-04-27T20:08:34.281Z,101133.09
2023-04-27T20:11:02.330Z,101139.41
2023-04-27T20:13:30.104Z,101126.38
2023-04-27T20:15:58.309Z,101134.31
2023-04-27T20:18:26.169Z,101132.47
2023-04-27T20:20:53.992Z,101126.50
2023-04-27T20:23:21.780Z,101128.38
2023-04-27T20:25:49.744Z,101125.69
2023-04-27T20:28:35.045Z,101125.97
2023-04-27T20:31:09.062Z,101128.31
2023-04-27T20:33:36.891Z,101131.97
2023-04-27T20:36:14.225Z,101122.66
2023-04-27T20:38:45.346Z,101128.19
2023-04-27T20:41:13.312Z,101138.38
2023-04-27T20:43:41.409Z,101131.63
2023-04-27T20:46:11.325Z,101143.47
2023-04-27T20:48:40.329Z,101136.38
2023-04-27T20:51:08.305Z,101134.44
2023-04-27T20:53:36.436Z,101143.38
2023-04-27T20:56:04.788Z,101139.88
2023-04-27T20:58:45.309Z,101141.44
2023-04-27T21:01:27.790Z,101143.28
2023-04-27T21:03:55.928Z,101140.53
2023-04-27T21:06:23.906Z,101140.16
2023-04-27T21:08:52.080Z,101150.75
2023-04-27T21:11:20.748Z,101137.34
2023-04-27T21:13:48.644Z,101137.34
2023-04-27T21:16:16.555Z,101131.16
2023-04-27T21:18:44.402Z,101142.19
2023-04-27T21:21:12.216Z,101139.34
2023-04-27T21:23:40.096Z,101137.41
2023-04-27T21:26:09.581Z,101131.00
2023-04-27T21:28:43.615Z,101134.09
2023-04-27T21:31:25.716Z,101151.41
2023-04-27T21:33:53.817Z,101142.69
2023-04-27T21:36:21.932Z,101140.66
2023-04-27T21:38:50.011Z,101139.19
2023-04-27T21:41:17.974Z,101140.66
2023-04-27T21:43:46.349Z,101136.66
2023-04-27T21:46:14.232Z,101137.81
2023-04-27T21:48:42.114Z,101135.72
2023-04-27T21:51:09.970Z,101141.59
2023-04-27T21:53:37.774Z,101144.34
2023-04-27T21:56:06.050Z,101143.69
2023-04-27T21:58:45.719Z,101132.97
2023-04-27T22:01:27.360Z,101134.69
2023-04-27T22:03:55.771Z,101136.69
2023-04-27T22:06:36.522Z,101129.66
2023-04-27T22:09:13.022Z,101128.38
2023-04-27T22:11:41.325Z,101135.81
2023-04-27T22:14:09.148Z,101134.47
2023-04-27T22:16:37.267Z,101134.50
2023-04-27T22:19:05.190Z,101143.31
2023-04-27T22:21:33.441Z,101146.06
2023-04-27T22:24:01.405Z,101146.91
2023-04-27T22:26:31.485Z,101148.84
2023-04-27T22:29:10.497Z,101139.78
2023-04-27T22:31:44.662Z,101152.16
2023-04-27T22:34:13.246Z,101152.56
2023-04-27T22:36:41.469Z,101152.72
2023-04-27T22:39:09.341Z,101160.09
2023-04-27T22:41:37.353Z,101153.81
2023-04-27T22:44:05.213Z,101151.72
2023-04-27T22:46:33.119Z,101149.31
2023-04-27T22:49:01.606Z,101154.00
2023-04-27T22:51:29.347Z,101158.44
2023-04-27T22:53:57.081Z,101171.09
2023-04-27T22:56:24.935Z,101161.75
2023-04-27T22:58:52.674Z,101164.56
2023-04-27T23:01:36.113Z,101174.19
2023-04-27T23:04:09.605Z,101161.91
2023-04-27T23:06:38.338Z,101175.91
2023-04-27T23:09:06.152Z,101163.59
2023-04-27T23:11:34.263Z,101164.41
2023-04-27T23:14:02.520Z,101161.91
2023-04-27T23:16:30.900Z,101153.38
2023-04-27T23:18:58.743Z,101150.13
2023-04-27T23:21:26.730Z,101160.00
2023-04-27T23:23:54.596Z,101165.25
2023-04-27T23:26:22.465Z,101155.94
2023-04-27T23:28:50.176Z,101152.38
2023-04-27T23:31:30.382Z,101158.47
2023-04-27T23:34:04.518Z,101163.88
2023-04-27T23:36:32.345Z,101167.66
2023-04-27T23:39:00.665Z,101153.59
2023-04-27T23:41:28.563Z,101160.22
2023-04-27T23:43:56.376Z,101150.41
2023-04-27T23:46:24.285Z,101156.50
2023-04-27T23:48:52.312Z,101161.72
2023-04-27T23:51:20.116Z,101146.66
2023-04-27T23:53:47.936Z,101146.09
2023-04-27T23:56:17.441Z,101150.75
2023-04-27T23:58:45.625Z,101143.66
